Aviation

Port-au-Prince

FTHA31 MTPP 022200

TAF MTPP 022200Z 0300/0324 11013KT 9999 FEW027

BECMG 0223/0303 30012KT

FM030600 VRB02KT 9000 FEW018

TEMPO 0312/0316 10012KT 9000 FEW020=


Cap-Haïtien

FTHA31 MTCH 022200

TAF MTCH 022200Z 0300/0324 03013KT 9999 FEW022CB

BECMG 0308/0312 VRB02KT

FM031400 05012KT 9000 FEW025=